sensor_id;sensor_type;location;lat;lon;timestamp;pressure;altitude;pressure_sealevel;temperature;humidity
21276;BME280;36472;52.170;20.884;2023-03-23T00:01:22;99783.66;;;9.89;85.50
21276;BME280;36472;52.170;20.884;2023-03-23T00:03:54;99785.31;;;9.90;85.48
21276;BME280;36472;52.170;20.884;2023-03-23T00:06:26;99782.06;;;9.87;85.67
21276;BME280;36472;52.170;20.884;2023-03-23T00:08:55;99780.53;;;9.84;85.79
21276;BME280;36472;52.170;20.884;2023-03-23T00:11:28;99785.78;;;9.84;85.67
21276;BME280;36472;52.170;20.884;2023-03-23T00:13:59;99772.16;;;9.79;86.05
21276;BME280;36472;52.170;20.884;2023-03-23T00:16:32;99772.53;;;9.86;85.69
21276;BME280;36472;52.170;20.884;2023-03-23T00:19:06;99781.34;;;9.85;85.63
21276;BME280;36472;52.170;20.884;2023-03-23T00:21:37;99777.78;;;9.86;85.79
21276;BME280;36472;52.170;20.884;2023-03-23T00:24:09;99776.31;;;9.82;85.76
21276;BME280;36472;52.170;20.884;2023-03-23T00:26:39;99779.66;;;9.84;85.69
21276;BME280;36472;52.170;20.884;2023-03-23T00:29:13;99771.69;;;9.85;85.98
21276;BME280;36472;52.170;20.884;2023-03-23T00:31:44;99772.66;;;9.84;86.06
21276;BME280;36472;52.170;20.884;2023-03-23T00:34:15;99770.63;;;9.88;86.04
21276;BME280;36472;52.170;20.884;2023-03-23T00:36:46;99767.69;;;9.92;85.86
21276;BME280;36472;52.170;20.884;2023-03-23T00:39:16;99764.31;;;9.90;85.96
21276;BME280;36472;52.170;20.884;2023-03-23T00:41:47;99755.91;;;9.98;86.05
21276;BME280;36472;52.170;20.884;2023-03-23T00:44:15;99758.53;;;9.98;85.91
21276;BME280;36472;52.170;20.884;2023-03-23T00:46:46;99758.91;;;10.05;85.89
21276;BME280;36472;52.170;20.884;2023-03-23T00:49:19;99752.59;;;10.07;85.82
21276;BME280;36472;52.170;20.884;2023-03-23T00:51:51;99752.47;;;10.09;86.08
21276;BME280;36472;52.170;20.884;2023-03-23T00:54:20;99753.94;;;10.13;86.04
21276;BME280;36472;52.170;20.884;2023-03-23T00:56:50;99757.56;;;10.23;85.60
21276;BME280;36472;52.170;20.884;2023-03-23T00:59:18;99748.50;;;10.27;85.63
21276;BME280;36472;52.170;20.884;2023-03-23T01:01:48;99745.66;;;10.30;85.28
21276;BME280;36472;52.170;20.884;2023-03-23T01:04:16;99742.19;;;10.30;85.15
21276;BME280;36472;52.170;20.884;2023-03-23T01:06:48;99738.28;;;10.36;85.31
21276;BME280;36472;52.170;20.884;2023-03-23T01:09:18;99744.25;;;10.38;85.04
21276;BME280;36472;52.170;20.884;2023-03-23T01:11:50;99740.69;;;10.39;84.88
21276;BME280;36472;52.170;20.884;2023-03-23T01:14:20;99741.91;;;10.46;84.58
21276;BME280;36472;52.170;20.884;2023-03-23T01:16:51;99734.97;;;10.45;84.92
21276;BME280;36472;52.170;20.884;2023-03-23T01:19:19;99748.69;;;10.48;84.56
21276;BME280;36472;52.170;20.884;2023-03-23T01:21:48;99740.94;;;10.47;84.35
21276;BME280;36472;52.170;20.884;2023-03-23T01:24:16;99745.13;;;10.50;84.21
21276;BME280;36472;52.170;20.884;2023-03-23T01:26:44;99745.97;;;10.50;84.32
21276;BME280;36472;52.170;20.884;2023-03-23T01:29:12;99743.22;;;10.52;84.04
21276;BME280;36472;52.170;20.884;2023-03-23T01:31:40;99743.22;;;10.52;83.75
21276;BME280;36472;52.170;20.884;2023-03-23T01:34:11;99741.19;;;10.44;84.04
21276;BME280;36472;52.170;20.884;2023-03-23T01:36:39;99745.97;;;10.50;84.21
21276;BME280;36472;52.170;20.884;2023-03-23T01:39:07;99738.09;;;10.50;83.78
21276;BME280;36472;52.170;20.884;2023-03-23T01:41:36;99745.84;;;10.52;83.60
21276;BME280;36472;52.170;20.884;2023-03-23T01:47:31;99734.25;;;10.43;83.91
21276;BME280;36472;52.170;20.884;2023-03-23T01:50:01;99733.41;;;10.42;84.37
21276;BME280;36472;52.170;20.884;2023-03-23T01:52:30;99738.19;;;10.37;84.16
21276;BME280;36472;52.170;20.884;2023-03-23T01:55:04;99739.94;;;10.37;83.98
21276;BME280;36472;52.170;20.884;2023-03-23T01:57:33;99736.59;;;10.35;84.23
21276;BME280;36472;52.170;20.884;2023-03-23T02:00:08;99729.19;;;10.28;84.02
21276;BME280;36472;52.170;20.884;2023-03-23T02:02:43;99724.03;;;10.27;84.41
21276;BME280;36472;52.170;20.884;2023-03-23T02:05:22;99718.78;;;10.27;84.08
21276;BME280;36472;52.170;20.884;2023-03-23T02:07:53;99717.31;;;10.23;83.89
21276;BME280;36472;52.170;20.884;2023-03-23T02:10:21;99720.06;;;10.21;84.29
21276;BME280;36472;52.170;20.884;2023-03-23T02:12:49;99711.56;;;10.18;84.29
21276;BME280;36472;52.170;20.884;2023-03-23T02:15:18;99713.59;;;10.14;84.12
21276;BME280;36472;52.170;20.884;2023-03-23T02:17:57;99708.94;;;10.06;84.66
21276;BME280;36472;52.170;20.884;2023-03-23T02:20:52;99706.41;;;10.05;84.93
21276;BME280;36472;52.170;20.884;2023-03-23T02:23:50;99709.16;;;10.03;84.44
21276;BME280;36472;52.170;20.884;2023-03-23T02:26:40;99706.75;;;10.00;84.48
21276;BME280;36472;52.170;20.884;2023-03-23T02:29:44;99718.72;;;10.04;84.29
21276;BME280;36472;52.170;20.884;2023-03-23T02:32:39;99711.06;;;10.01;84.13
21276;BME280;36472;52.170;20.884;2023-03-23T02:35:20;99709.69;;;9.96;84.53
21276;BME280;36472;52.170;20.884;2023-03-23T02:37:55;99708.59;;;9.87;84.77
21276;BME280;36472;52.170;20.884;2023-03-23T02:40:32;99701.19;;;9.81;85.37
21276;BME280;36472;52.170;20.884;2023-03-23T02:43:03;99700.44;;;9.79;86.24
21276;BME280;36472;52.170;20.884;2023-03-23T02:45:37;99705.97;;;9.87;86.14
21276;BME280;36472;52.170;20.884;2023-03-23T02:48:09;99699.66;;;9.89;85.86
21276;BME280;36472;52.170;20.884;2023-03-23T02:50:42;99700.00;;;9.85;86.25
21276;BME280;36472;52.170;20.884;2023-03-23T02:53:15;99703.13;;;9.90;86.05
21276;BME280;36472;52.170;20.884;2023-03-23T02:55:47;99711.59;;;9.93;85.81
21276;BME280;36472;52.170;20.884;2023-03-23T02:58:20;99708.16;;;9.93;85.44
21276;BME280;36472;52.170;20.884;2023-03-23T03:00:49;99709.94;;;9.92;85.11
21276;BME280;36472;52.170;20.884;2023-03-23T03:03:23;99711.00;;;9.90;85.51
21276;BME280;36472;52.170;20.884;2023-03-23T03:06:06;99710.06;;;9.91;85.64
21276;BME280;36472;52.170;20.884;2023-03-23T03:08:46;99710.28;;;9.88;86.14
21276;BME280;36472;52.170;20.884;2023-03-23T03:11:19;99708.47;;;9.88;86.58
21276;BME280;36472;52.170;20.884;2023-03-23T03:13:54;99702.19;;;9.91;86.66
21276;BME280;36472;52.170;20.884;2023-03-23T03:16:31;99706.56;;;9.90;86.77
21276;BME280;36472;52.170;20.884;2023-03-23T03:19:08;99701.47;;;9.89;86.41
21276;BME280;36472;52.170;20.884;2023-03-23T03:21:44;99700.28;;;9.93;86.55
21276;BME280;36472;52.170;20.884;2023-03-23T03:24:20;99706.47;;;9.92;86.47
21276;BME280;36472;52.170;20.884;2023-03-23T03:26:54;99708.03;;;9.95;86.62
21276;BME280;36472;52.170;20.884;2023-03-23T03:29:35;99702.69;;;9.96;86.45
21276;BME280;36472;52.170;20.884;2023-03-23T03:32:06;99716.53;;;9.98;86.36
21276;BME280;36472;52.170;20.884;2023-03-23T03:34:36;99713.19;;;9.96;86.60
21276;BME280;36472;52.170;20.884;2023-03-23T03:37:06;99718.22;;;9.99;86.00
21276;BME280;36472;52.170;20.884;2023-03-23T03:39:36;99722.22;;;9.92;85.79
21276;BME280;36472;52.170;20.884;2023-03-23T03:42:05;99716.34;;;9.88;85.96
21276;BME280;36472;52.170;20.884;2023-03-23T03:44:34;99714.91;;;9.84;85.72
21276;BME280;36472;52.170;20.884;2023-03-23T03:47:02;99716.69;;;9.84;85.69
21276;BME280;36472;52.170;20.884;2023-03-23T03:49:30;99723.13;;;9.80;85.57
21276;BME280;36472;52.170;20.884;2023-03-23T03:51:58;99715.81;;;9.72;85.42
21276;BME280;36472;52.170;20.884;2023-03-23T03:54:37;99717.94;;;9.67;85.92
21276;BME280;36472;52.170;20.884;2023-03-23T03:57:07;99703.56;;;9.60;86.13
21276;BME280;36472;52.170;20.884;2023-03-23T03:59:55;99697.91;;;9.53;86.23
21276;BME280;36472;52.170;20.884;2023-03-23T04:02:46;99692.16;;;9.48;86.98
21276;BME280;36472;52.170;20.884;2023-03-23T04:05:25;99685.16;;;9.48;87.32
21276;BME280;36472;52.170;20.884;2023-03-23T04:07:55;99691.94;;;9.51;86.73
21276;BME280;36472;52.170;20.884;2023-03-23T04:10:31;99682.31;;;9.51;85.75
21276;BME280;36472;52.170;20.884;2023-03-23T04:13:01;99691.13;;;9.50;85.61
21276;BME280;36472;52.170;20.884;2023-03-23T04:15:49;99688.50;;;9.50;85.64
21276;BME280;36472;52.170;20.884;2023-03-23T04:18:18;99694.78;;;9.48;85.44
21276;BME280;36472;52.170;20.884;2023-03-23T04:20:49;99695.66;;;9.48;85.48
21276;BME280;36472;52.170;20.884;2023-03-23T04:23:21;99700.19;;;9.46;85.20
21276;BME280;36472;52.170;20.884;2023-03-23T04:25:53;99695.03;;;9.45;85.13
21276;BME280;36472;52.170;20.884;2023-03-23T04:28:26;99700.59;;;9.40;85.93
21276;BME280;36472;52.170;20.884;2023-03-23T04:31:27;99687.91;;;9.34;85.67
21276;BME280;36472;52.170;20.884;2023-03-23T04:34:04;99693.25;;;9.32;85.89
21276;BME280;36472;52.170;20.884;2023-03-23T04:36:39;99691.50;;;9.33;85.82
21276;BME280;36472;52.170;20.884;2023-03-23T04:39:14;99688.47;;;9.26;85.81
21276;BME280;36472;52.170;20.884;2023-03-23T04:41:45;99691.09;;;9.26;86.34
21276;BME280;36472;52.170;20.884;2023-03-23T04:44:44;99694.16;;;9.20;85.98
21276;BME280;36472;52.170;20.884;2023-03-23T04:47:26;99694.03;;;9.22;85.87
21276;BME280;36472;52.170;20.884;2023-03-23T04:49:58;99696.75;;;9.20;85.61
21276;BME280;36472;52.170;20.884;2023-03-23T04:52:36;99692.81;;;9.14;86.06
21276;BME280;36472;52.170;20.884;2023-03-23T04:55:08;99684.41;;;9.09;86.07
21276;BME280;36472;52.170;20.884;2023-03-23T04:57:40;99689.66;;;9.09;86.63
21276;BME280;36472;52.170;20.884;2023-03-23T05:00:46;99685.25;;;9.10;86.47
21276;BME280;36472;52.170;20.884;2023-03-23T05:03:17;99684.09;;;9.14;86.34
21276;BME280;36472;52.170;20.884;2023-03-23T05:05:47;99686.28;;;9.20;85.91
21276;BME280;36472;52.170;20.884;2023-03-23T05:08:19;99689.75;;;9.21;85.87
21276;BME280;36472;52.170;20.884;2023-03-23T05:10:52;99684.50;;;9.21;85.96
21276;BME280;36472;52.170;20.884;2023-03-23T05:13:25;99675.78;;;9.20;86.39
21276;BME280;36472;52.170;20.884;2023-03-23T05:15:55;99678.31;;;9.22;86.76
21276;BME280;36472;52.170;20.884;2023-03-23T05:18:23;99678.91;;;9.25;86.78
21276;BME280;36472;52.170;20.884;2023-03-23T05:20:52;99669.41;;;9.24;86.93
21276;BME280;36472;52.170;20.884;2023-03-23T05:23:22;99679.44;;;9.30;87.37
21276;BME280;36472;52.170;20.884;2023-03-23T05:25:58;99683.28;;;9.38;88.02
21276;BME280;36472;52.170;20.884;2023-03-23T05:28:31;99673.09;;;9.46;88.01
21276;BME280;36472;52.170;20.884;2023-03-23T05:31:06;99670.84;;;9.52;88.43
21276;BME280;36472;52.170;20.884;2023-03-23T05:33:34;99679.63;;;9.64;88.16
21276;BME280;36472;52.170;20.884;2023-03-23T05:36:11;99677.06;;;9.76;87.74
21276;BME280;36472;52.170;20.884;2023-03-23T05:38:58;99683.53;;;9.83;88.16
21276;BME280;36472;52.170;20.884;2023-03-23T05:41:38;99675.22;;;9.89;88.76
21276;BME280;36472;52.170;20.884;2023-03-23T05:44:08;99686.25;;;10.05;88.84
21276;BME280;36472;52.170;20.884;2023-03-23T05:46:52;99676.00;;;10.14;88.84
21276;BME280;36472;52.170;20.884;2023-03-23T05:49:20;99679.63;;;10.24;89.01
21276;BME280;36472;52.170;20.884;2023-03-23T05:51:48;99684.78;;;10.37;88.68
21276;BME280;36472;52.170;20.884;2023-03-23T05:54:17;99691.16;;;10.45;88.19
21276;BME280;36472;52.170;20.884;2023-03-23T05:56:48;99681.63;;;10.56;88.00
21276;BME280;36472;52.170;20.884;2023-03-23T05:59:50;99681.28;;;10.72;87.18
21276;BME280;36472;52.170;20.884;2023-03-23T06:02:22;99686.41;;;10.84;86.17
21276;BME280;36472;52.170;20.884;2023-03-23T06:04:53;99690.97;;;10.94;85.63
21276;BME280;36472;52.170;20.884;2023-03-23T06:07:33;99694.53;;;11.04;85.71
21276;BME280;36472;52.170;20.884;2023-03-23T06:10:07;99687.13;;;11.20;84.82
21276;BME280;36472;52.170;20.884;2023-03-23T06:12:41;99688.78;;;11.33;84.31
21276;BME280;36472;52.170;20.884;2023-03-23T06:15:22;99686.69;;;11.48;83.59
21276;BME280;36472;52.170;20.884;2023-03-23T06:18:01;99686.34;;;11.52;83.47
21276;BME280;36472;52.170;20.884;2023-03-23T06:20:45;99679.25;;;11.64;82.74
21276;BME280;36472;52.170;20.884;2023-03-23T06:23:22;99681.13;;;11.73;82.36
21276;BME280;36472;52.170;20.884;2023-03-23T06:25:54;99691.50;;;11.86;81.92
21276;BME280;36472;52.170;20.884;2023-03-23T06:28:24;99686.47;;;11.94;81.79
21276;BME280;36472;52.170;20.884;2023-03-23T06:30:53;99687.63;;;12.02;81.10
21276;BME280;36472;52.170;20.884;2023-03-23T06:33:21;99687.31;;;12.16;80.57
21276;BME280;36472;52.170;20.884;2023-03-23T06:36:22;99693.56;;;12.36;80.10
21276;BME280;36472;52.170;20.884;2023-03-23T06:39:11;99703.78;;;12.50;78.71
21276;BME280;36472;52.170;20.884;2023-03-23T06:42:03;99698.56;;;12.60;77.86
21276;BME280;36472;52.170;20.884;2023-03-23T06:44:36;99690.06;;;12.78;76.89
21276;BME280;36472;52.170;20.884;2023-03-23T06:47:06;99695.66;;;12.94;75.57
21276;BME280;36472;52.170;20.884;2023-03-23T06:49:37;99694.59;;;13.06;74.45
21276;BME280;36472;52.170;20.884;2023-03-23T06:52:26;99697.53;;;13.13;73.14
21276;BME280;36472;52.170;20.884;2023-03-23T06:54:54;99694.69;;;13.26;72.68
21276;BME280;36472;52.170;20.884;2023-03-23T06:57:23;99691.25;;;13.35;72.72
21276;BME280;36472;52.170;20.884;2023-03-23T06:59:52;99701.72;;;13.46;72.05
21276;BME280;36472;52.170;20.884;2023-03-23T07:02:24;99707.56;;;13.60;71.88
21276;BME280;36472;52.170;20.884;2023-03-23T07:04:53;99698.94;;;13.68;71.38
21276;BME280;36472;52.170;20.884;2023-03-23T07:07:24;99698.13;;;13.87;69.95
21276;BME280;36472;52.170;20.884;2023-03-23T07:10:09;99699.09;;;14.05;69.07
21276;BME280;36472;52.170;20.884;2023-03-23T07:12:38;99700.50;;;14.19;68.93
21276;BME280;36472;52.170;20.884;2023-03-23T07:15:10;99700.91;;;14.24;68.61
21276;BME280;36472;52.170;20.884;2023-03-23T07:17:43;99699.22;;;14.43;67.93
21276;BME280;36472;52.170;20.884;2023-03-23T07:20:25;99701.16;;;14.50;66.57
21276;BME280;36472;52.170;20.884;2023-03-23T07:22:54;99697.25;;;14.54;66.69
21276;BME280;36472;52.170;20.884;2023-03-23T07:25:57;99700.03;;;14.72;66.21
21276;BME280;36472;52.170;20.884;2023-03-23T07:28:32;99709.97;;;14.88;66.86
21276;BME280;36472;52.170;20.884;2023-03-23T07:31:07;99709.09;;;14.98;66.13
21276;BME280;36472;52.170;20.884;2023-03-23T07:33:38;99712.50;;;15.18;65.77
21276;BME280;36472;52.170;20.884;2023-03-23T07:36:08;99722.75;;;15.30;64.67
21276;BME280;36472;52.170;20.884;2023-03-23T07:38:38;99716.88;;;15.37;63.40
21276;BME280;36472;52.170;20.884;2023-03-23T07:41:06;99710.69;;;15.46;62.47
21276;BME280;36472;52.170;20.884;2023-03-23T07:43:36;99712.28;;;15.57;63.40
21276;BME280;36472;52.170;20.884;2023-03-23T07:46:20;99728.53;;;15.71;62.24
21276;BME280;36472;52.170;20.884;2023-03-23T07:49:13;99722.19;;;15.82;61.88
21276;BME280;36472;52.170;20.884;2023-03-23T07:51:52;99715.81;;;15.93;61.33
21276;BME280;36472;52.170;20.884;2023-03-23T07:54:20;99715.16;;;15.91;59.71
21276;BME280;36472;52.170;20.884;2023-03-23T07:57:03;99711.56;;;16.00;59.88
21276;BME280;36472;52.170;20.884;2023-03-23T07:59:38;99707.13;;;16.01;59.07
21276;BME280;36472;52.170;20.884;2023-03-23T08:02:07;99707.22;;;16.09;59.71
21276;BME280;36472;52.170;20.884;2023-03-23T08:04:50;99708.09;;;16.18;60.47
21276;BME280;36472;52.170;20.884;2023-03-23T08:07:38;99699.81;;;16.21;59.92
21276;BME280;36472;52.170;20.884;2023-03-23T08:10:27;99704.59;;;16.35;59.51
21276;BME280;36472;52.170;20.884;2023-03-23T08:13:19;99706.25;;;16.36;58.46
21276;BME280;36472;52.170;20.884;2023-03-23T08:16:07;99707.03;;;16.55;58.76
21276;BME280;36472;52.170;20.884;2023-03-23T08:18:55;99702.22;;;16.50;57.77
21276;BME280;36472;52.170;20.884;2023-03-23T08:21:28;99695.97;;;16.59;57.47
21276;BME280;36472;52.170;20.884;2023-03-23T08:24:18;99693.88;;;16.71;58.33
21276;BME280;36472;52.170;20.884;2023-03-23T08:26:57;99690.63;;;16.77;57.16
21276;BME280;36472;52.170;20.884;2023-03-23T08:29:25;99682.00;;;16.83;56.88
21276;BME280;36472;52.170;20.884;2023-03-23T08:32:14;99677.00;;;16.80;55.29
21276;BME280;36472;52.170;20.884;2023-03-23T08:35:09;99668.16;;;16.90;55.71
21276;BME280;36472;52.170;20.884;2023-03-23T08:37:59;99668.34;;;17.05;56.12
21276;BME280;36472;52.170;20.884;2023-03-23T08:41:05;99669.47;;;17.36;53.71
21276;BME280;36472;52.170;20.884;2023-03-23T08:43:56;99669.97;;;17.40;53.54
21276;BME280;36472;52.170;20.884;2023-03-23T08:46:38;99664.38;;;17.51;53.59
21276;BME280;36472;52.170;20.884;2023-03-23T08:49:17;99674.50;;;17.56;53.78
21276;BME280;36472;52.170;20.884;2023-03-23T08:52:07;99680.81;;;17.55;52.55
21276;BME280;36472;52.170;20.884;2023-03-23T08:55:15;99675.97;;;17.50;53.32
21276;BME280;36472;52.170;20.884;2023-03-23T08:58:02;99670.66;;;17.50;52.03
21276;BME280;36472;52.170;20.884;2023-03-23T09:00:51;99669.31;;;17.38;51.04
21276;BME280;36472;52.170;20.884;2023-03-23T09:03:28;99675.47;;;17.47;52.50
21276;BME280;36472;52.170;20.884;2023-03-23T09:06:09;99677.16;;;17.64;53.01
21276;BME280;36472;52.170;20.884;2023-03-23T09:08:48;99679.50;;;17.67;52.68
21276;BME280;36472;52.170;20.884;2023-03-23T09:11:18;99676.50;;;17.70;51.17
21276;BME280;36472;52.170;20.884;2023-03-23T09:13:46;99672.53;;;17.66;51.72
21276;BME280;36472;52.170;20.884;2023-03-23T09:16:14;99674.31;;;17.57;52.51
21276;BME280;36472;52.170;20.884;2023-03-23T09:18:42;99677.97;;;17.48;51.79
21276;BME280;36472;52.170;20.884;2023-03-23T09:21:10;99682.97;;;17.51;52.29
21276;BME280;36472;52.170;20.884;2023-03-23T09:23:38;99675.63;;;17.45;51.51
21276;BME280;36472;52.170;20.884;2023-03-23T09:26:30;99670.63;;;17.42;51.55
21276;BME280;36472;52.170;20.884;2023-03-23T09:28:58;99674.69;;;17.54;52.04
21276;BME280;36472;52.170;20.884;2023-03-23T09:31:26;99673.03;;;17.70;52.45
21276;BME280;36472;52.170;20.884;2023-03-23T09:33:54;99670.91;;;17.82;50.04
21276;BME280;36472;52.170;20.884;2023-03-23T09:36:23;99662.44;;;17.86;49.46
21276;BME280;36472;52.170;20.884;2023-03-23T09:38:52;99656.81;;;17.89;49.92
21276;BME280;36472;52.170;20.884;2023-03-23T09:41:53;99654.28;;;18.21;48.42
21276;BME280;36472;52.170;20.884;2023-03-23T09:44:37;99648.47;;;18.34;48.67
21276;BME280;36472;52.170;20.884;2023-03-23T09:47:15;99647.44;;;18.51;48.92
21276;BME280;36472;52.170;20.884;2023-03-23T09:49:54;99635.41;;;18.72;47.96
21276;BME280;36472;52.170;20.884;2023-03-23T09:52:36;99632.56;;;19.21;48.02
21276;BME280;36472;52.170;20.884;2023-03-23T09:55:07;99638.09;;;19.42;46.01
21276;BME280;36472;52.170;20.884;2023-03-23T09:57:47;99639.03;;;20.19;44.09
21276;BME280;36472;52.170;20.884;2023-03-23T10:00:23;99638.44;;;20.62;44.36
21276;BME280;36472;52.170;20.884;2023-03-23T10:03:00;99640.50;;;21.62;41.31
21276;BME280;36472;52.170;20.884;2023-03-23T10:05:33;99632.75;;;22.46;39.74
21276;BME280;36472;52.170;20.884;2023-03-23T10:08:10;99625.56;;;23.36;37.99
21276;BME280;36472;52.170;20.884;2023-03-23T10:10:53;99628.53;;;24.35;36.63
21276;BME280;36472;52.170;20.884;2023-03-23T10:13:47;99626.91;;;25.06;34.51
21276;BME280;36472;52.170;20.884;2023-03-23T10:16:24;99625.03;;;25.13;33.70
21276;BME280;36472;52.170;20.884;2023-03-23T10:18:59;99618.19;;;25.10;33.67
21276;BME280;36472;52.170;20.884;2023-03-23T10:21:29;99616.22;;;24.92;35.03
21276;BME280;36472;52.170;20.884;2023-03-23T10:24:01;99613.09;;;24.95;34.07
21276;BME280;36472;52.170;20.884;2023-03-23T10:26:41;99616.69;;;25.21;33.33
21276;BME280;36472;52.170;20.884;2023-03-23T10:29:19;99613.81;;;25.16;33.42
21276;BME280;36472;52.170;20.884;2023-03-23T10:31:54;99616.47;;;24.84;33.98
21276;BME280;36472;52.170;20.884;2023-03-23T10:34:30;99618.63;;;24.35;34.42
21276;BME280;36472;52.170;20.884;2023-03-23T10:37:10;99610.72;;;23.33;36.13
21276;BME280;36472;52.170;20.884;2023-03-23T10:39:47;99618.69;;;23.07;37.03
21276;BME280;36472;52.170;20.884;2023-03-23T10:42:26;99612.34;;;23.14;36.53
21276;BME280;36472;52.170;20.884;2023-03-23T10:45:00;99609.88;;;23.33;37.13
21276;BME280;36472;52.170;20.884;2023-03-23T10:47:28;99605.03;;;23.83;37.30
21276;BME280;36472;52.170;20.884;2023-03-23T10:50:00;99601.72;;;23.68;35.23
21276;BME280;36472;52.170;20.884;2023-03-23T10:52:34;99605.03;;;23.83;35.53
21276;BME280;36472;52.170;20.884;2023-03-23T10:55:07;99595.13;;;23.84;35.70
21276;BME280;36472;52.170;20.884;2023-03-23T10:57:38;99595.13;;;23.84;35.42
21276;BME280;36472;52.170;20.884;2023-03-23T11:00:21;99595.91;;;24.38;35.96
21276;BME280;36472;52.170;20.884;2023-03-23T11:03:00;99600.38;;;24.77;34.63
21276;BME280;36472;52.170;20.884;2023-03-23T11:05:36;99596.47;;;24.67;34.37
21276;BME280;36472;52.170;20.884;2023-03-23T11:08:13;99593.81;;;24.53;35.29
21276;BME280;36472;52.170;20.884;2023-03-23T11:10:50;99602.63;;;24.80;35.69
21276;BME280;36472;52.170;20.884;2023-03-23T11:13:22;99588.31;;;24.87;34.17
21276;BME280;36472;52.170;20.884;2023-03-23T11:15:51;99578.44;;;25.19;33.39
21276;BME280;36472;52.170;20.884;2023-03-23T11:18:21;99585.16;;;25.03;30.27
21276;BME280;36472;52.170;20.884;2023-03-23T11:20:54;99575.09;;;24.85;30.35
21276;BME280;36472;52.170;20.884;2023-03-23T11:23:27;99572.72;;;24.63;31.58
21276;BME280;36472;52.170;20.884;2023-03-23T11:26:10;99582.69;;;24.36;30.93
21276;BME280;36472;52.170;20.884;2023-03-23T11:28:45;99584.91;;;25.11;31.30
21276;BME280;36472;52.170;20.884;2023-03-23T11:31:17;99564.13;;;26.33;29.82
21276;BME280;36472;52.170;20.884;2023-03-23T11:33:53;99566.63;;;27.01;28.21
21276;BME280;36472;52.170;20.884;2023-03-23T11:36:34;99567.78;;;28.61;27.30
21276;BME280;36472;52.170;20.884;2023-03-23T11:39:16;99556.41;;;29.79;24.74
21276;BME280;36472;52.170;20.884;2023-03-23T11:41:47;99541.78;;;31.02;23.94
21276;BME280;36472;52.170;20.884;2023-03-23T11:44:15;99537.34;;;31.23;24.80
21276;BME280;36472;52.170;20.884;2023-03-23T12:40:55;99472.78;;;23.09;34.25
21276;BME280;36472;52.170;20.884;2023-03-23T12:43:33;99479.06;;;22.82;35.52
21276;BME280;36472;52.170;20.884;2023-03-23T12:46:20;99471.63;;;22.70;35.94
21276;BME280;36472;52.170;20.884;2023-03-23T12:48:57;99471.63;;;22.70;36.49
21276;BME280;36472;52.170;20.884;2023-03-23T12:51:35;99475.69;;;22.59;36.23
21276;BME280;36472;52.170;20.884;2023-03-23T12:54:13;99473.59;;;22.41;35.81
21276;BME280;36472;52.170;20.884;2023-03-23T12:56:52;99468.31;;;22.20;36.51
21276;BME280;36472;52.170;20.884;2023-03-23T12:59:30;99470.53;;;22.10;37.31
21276;BME280;36472;52.170;20.884;2023-03-23T13:02:12;99468.19;;;22.00;37.84
21276;BME280;36472;52.170;20.884;2023-03-23T13:04:47;99472.00;;;21.84;37.68
21276;BME280;36472;52.170;20.884;2023-03-23T13:07:28;99469.19;;;21.64;38.40
21276;BME280;36472;52.170;20.884;2023-03-23T13:10:07;99473.09;;;21.61;38.44
21276;BME280;36472;52.170;20.884;2023-03-23T13:12:42;99470.00;;;21.36;37.67
21276;BME280;36472;52.170;20.884;2023-03-23T13:15:26;99464.16;;;21.26;38.35
21276;BME280;36472;52.170;20.884;2023-03-23T13:18:03;99459.97;;;21.17;38.65
21276;BME280;36472;52.170;20.884;2023-03-23T13:20:50;99464.75;;;21.00;38.78
21276;BME280;36472;52.170;20.884;2023-03-23T13:23:25;99465.88;;;20.90;39.67
21276;BME280;36472;52.170;20.884;2023-03-23T13:25:59;99465.81;;;20.84;39.01
21276;BME280;36472;52.170;20.884;2023-03-23T13:28:31;99468.81;;;20.74;39.74
21276;BME280;36472;52.170;20.884;2023-03-23T13:31:10;99468.16;;;20.72;40.67
21276;BME280;36472;52.170;20.884;2023-03-23T13:33:44;99463.56;;;20.66;40.16
21276;BME280;36472;52.170;20.884;2023-03-23T13:36:15;99467.13;;;20.58;40.53
21276;BME280;36472;52.170;20.884;2023-03-23T13:38:47;99470.38;;;20.53;40.78
21276;BME280;36472;52.170;20.884;2023-03-23T13:41:20;99475.84;;;20.45;40.58
21276;BME280;36472;52.170;20.884;2023-03-23T13:43:50;99467.81;;;20.45;40.77
21276;BME280;36472;52.170;20.884;2023-03-23T13:46:53;99482.56;;;20.41;40.94
21276;BME280;36472;52.170;20.884;2023-03-23T13:49:22;99471.94;;;20.48;39.55
21276;BME280;36472;52.170;20.884;2023-03-23T13:52:21;99477.63;;;20.60;39.74
21276;BME280;36472;52.170;20.884;2023-03-23T13:59:34;99486.41;;;20.53;40.01
21276;BME280;36472;52.170;20.884;2023-03-23T14:11:15;99504.44;;;20.07;40.84
21276;BME280;36472;52.170;20.884;2023-03-23T14:18:21;99509.00;;;19.68;41.93
21276;BME280;36472;52.170;20.884;2023-03-23T14:20:51;99517.81;;;19.69;42.16
21276;BME280;36472;52.170;20.884;2023-03-23T14:27:52;99518.03;;;19.44;42.81
21276;BME280;36472;52.170;20.884;2023-03-23T14:30:22;99515.31;;;19.29;42.83
21276;BME280;36472;52.170;20.884;2023-03-23T14:32:52;99522.59;;;19.35;43.17
21276;BME280;36472;52.170;20.884;2023-03-23T14:35:28;99526.91;;;19.36;43.59
21276;BME280;36472;52.170;20.884;2023-03-23T14:37:57;99530.00;;;19.25;43.43
21276;BME280;36472;52.170;20.884;2023-03-23T14:40:28;99531.19;;;19.22;43.99
21276;BME280;36472;52.170;20.884;2023-03-23T14:42:57;99532.06;;;19.15;44.28
21276;BME280;36472;52.170;20.884;2023-03-23T14:50:02;99545.47;;;18.98;43.99
21276;BME280;36472;52.170;20.884;2023-03-23T14:52:36;99541.56;;;18.78;44.65
21276;BME280;36472;52.170;20.884;2023-03-23T14:59:41;99543.31;;;18.62;45.50
21276;BME280;36472;52.170;20.884;2023-03-23T15:02:14;99550.31;;;18.55;46.07
21276;BME280;36472;52.170;20.884;2023-03-23T15:09:21;99555.97;;;18.52;46.31
21276;BME280;36472;52.170;20.884;2023-03-23T15:11:56;99548.03;;;18.44;46.75